Time;durP1;ratioP1;P1;durP2;ratioP2;P2;SDS_P1;SDS_P2;PMS_P1;PMS_P2;Temp;Humidity;BMP_temperature;BMP_pressure;BME280_temperature;BME280_humidity;BME280_pressure;Samples;Min_cycle;Max_cycle;Signal;HPM_P1;HPM_P2
2021/11/24 00:00:56;;;;;;;;;;;24.40;39.10;;;;;;5078008;28;19917;-79
2021/11/24 00:03:22;;;;;;;;;;;24.40;39.20;;;;;;5077463;28;19908;-78
2021/11/24 00:05:47;;;;;;;;;;;24.40;39.20;;;;;;5077687;28;20256;-78
2021/11/24 00:08:13;;;;;;;;;;;24.30;39.20;;;;;;5094363;28;20348;-80
2021/11/24 00:10:41;;;;;;;;;;;24.30;39.30;;;;;;5094301;28;19912;-76
2021/11/24 00:13:06;;;;;;;;;;;24.30;39.30;;;;;;5094976;28;19909;-77
2021/11/24 00:15:32;;;;;;;;;;;24.30;39.40;;;;;;5096150;28;19908;-78
2021/11/24 00:18:00;;;;;;;;;;;24.30;39.40;;;;;;5078951;28;19936;-78
2021/11/24 00:20:31;;;;;;;;;;;24.30;39.50;;;;;;5094618;28;19912;-76
2021/11/24 00:22:56;;;;;;;;;;;24.30;39.50;;;;;;5095074;28;19913;-78
2021/11/24 00:25:22;;;;;;;;;;;24.30;39.50;;;;;;5099338;28;20029;-80
2021/11/24 00:27:47;;;;;;;;;;;24.20;39.40;;;;;;5099202;28;19920;-77
2021/11/24 00:30:18;;;;;;;;;;;24.30;39.50;;;;;;5099160;28;20023;-76
2021/11/24 00:32:43;;;;;;;;;;;24.20;39.50;;;;;;5081599;28;19912;-77
2021/11/24 00:35:09;;;;;;;;;;;24.30;39.60;;;;;;5098938;28;20302;-79
2021/11/24 00:37:35;;;;;;;;;;;24.20;39.50;;;;;;5098055;28;19927;-78
2021/11/24 00:40:01;;;;;;;;;;;24.20;39.60;;;;;;5081025;28;20268;-75
2021/11/24 00:42:29;;;;;;;;;;;24.20;39.60;;;;;;5098042;28;20241;-75
2021/11/24 00:44:54;;;;;;;;;;;24.20;39.70;;;;;;5098031;28;19946;-75
2021/11/24 00:47:20;;;;;;;;;;;24.20;39.70;;;;;;5098096;28;19908;-78
2021/11/24 00:49:45;;;;;;;;;;;24.20;39.70;;;;;;5098687;28;19935;-79
2021/11/24 00:52:11;;;;;;;;;;;24.20;39.70;;;;;;5099058;28;19907;-80
2021/11/24 00:54:36;;;;;;;;;;;24.20;39.70;;;;;;5098677;28;20337;-78
2021/11/24 00:57:02;;;;;;;;;;;24.20;39.70;;;;;;5097619;28;19970;-77
2021/11/24 00:59:30;;;;;;;;;;;24.10;39.70;;;;;;5097534;28;19919;-77
2021/11/24 01:01:58;;;;;;;;;;;24.20;39.80;;;;;;5097554;28;19908;-79
2021/11/24 01:04:26;;;;;;;;;;;24.10;39.80;;;;;;5097604;28;19959;-76
2021/11/24 01:06:52;;;;;;;;;;;24.10;39.80;;;;;;5097941;28;19937;-81
2021/11/24 01:09:17;;;;;;;;;;;24.10;39.80;;;;;;5080736;28;20256;-77
2021/11/24 01:11:43;;;;;;;;;;;24.10;39.80;;;;;;5097396;28;20386;-79
2021/11/24 01:14:09;;;;;;;;;;;24.10;39.80;;;;;;5097437;28;19919;-79
2021/11/24 01:16:36;;;;;;;;;;;24.10;39.80;;;;;;5098304;28;19912;-80
2021/11/24 01:19:02;;;;;;;;;;;24.10;39.80;;;;;;5097306;28;20284;-77
2021/11/24 01:21:30;;;;;;;;;;;24.10;39.90;;;;;;5097319;28;19927;-79
2021/11/24 01:23:55;;;;;;;;;;;24.10;39.90;;;;;;5098213;28;19959;-78
2021/11/24 01:26:23;;;;;;;;;;;24.10;39.90;;;;;;5097428;28;19985;-81
2021/11/24 01:28:51;;;;;;;;;;;24.10;39.90;;;;;;5097155;28;19912;-80
2021/11/24 01:31:17;;;;;;;;;;;24.10;39.90;;;;;;5097320;28;19908;-78
2021/11/24 01:33:42;;;;;;;;;;;24.00;39.90;;;;;;5097619;28;19919;-75
2021/11/24 01:36:13;;;;;;;;;;;24.00;39.90;;;;;;5095681;28;19974;-78
2021/11/24 01:38:38;;;;;;;;;;;24.00;39.90;;;;;;5097014;28;20293;-79
2021/11/24 01:41:04;;;;;;;;;;;24.00;39.90;;;;;;5097261;28;19911;-82
2021/11/24 01:43:29;;;;;;;;;;;24.00;40.50;;;;;;5097203;28;19951;-75
2021/11/24 01:45:55;;;;;;;;;;;24.00;40.00;;;;;;5100969;28;19908;-82
2021/11/24 01:48:21;;;;;;;;;;;24.00;40.00;;;;;;5096822;28;19918;-79
2021/11/24 01:50:46;;;;;;;;;;;24.00;40.00;;;;;;5096598;28;20422;-77
2021/11/24 01:53:12;;;;;;;;;;;24.00;40.00;;;;;;5096727;28;19908;-77
2021/11/24 01:55:37;;;;;;;;;;;24.00;40.00;;;;;;5096786;28;19908;-75
2021/11/24 01:58:03;;;;;;;;;;;24.00;40.10;;;;;;5096702;28;20466;-76
2021/11/24 02:00:30;;;;;;;;;;;24.00;40.00;;;;;;5079652;28;20375;-79
2021/11/24 02:02:56;;;;;;;;;;;24.00;40.00;;;;;;5096519;28;19908;-77
2021/11/24 02:05:21;;;;;;;;;;;23.90;40.00;;;;;;5080123;28;19908;-76
2021/11/24 02:07:47;;;;;;;;;;;23.90;40.00;;;;;;5097210;28;20340;-79
2021/11/24 02:10:12;;;;;;;;;;;23.90;40.10;;;;;;5079352;28;19964;-76
2021/11/24 02:12:38;;;;;;;;;;;23.90;40.10;;;;;;5096104;28;20007;-79
2021/11/24 02:15:04;;;;;;;;;;;23.90;40.10;;;;;;5079426;28;19923;-77
2021/11/24 02:17:32;;;;;;;;;;;23.90;40.10;;;;;;5097313;28;20016;-79
2021/11/24 02:19:57;;;;;;;;;;;23.90;40.10;;;;;;5079207;28;19908;-80
2021/11/24 02:22:25;;;;;;;;;;;23.90;40.10;;;;;;5096862;28;19982;-80
2021/11/24 02:24:50;;;;;;;;;;;23.90;40.20;;;;;;5096813;28;19908;-80
2021/11/24 02:27:16;;;;;;;;;;;23.90;40.20;;;;;;5078859;28;19991;-77
2021/11/24 02:29:44;;;;;;;;;;;23.90;40.20;;;;;;5096814;28;19911;-78
2021/11/24 02:32:12;;;;;;;;;;;23.90;40.20;;;;;;5096843;28;19908;-77
2021/11/24 02:34:37;;;;;;;;;;;23.90;40.20;;;;;;5096081;28;19908;-77
2021/11/24 02:37:03;;;;;;;;;;;23.90;40.20;;;;;;5096473;28;19981;-78
2021/11/24 02:39:30;;;;;;;;;;;23.90;40.20;;;;;;5078663;28;20244;-79
2021/11/24 02:41:55;;;;;;;;;;;23.90;40.20;;;;;;5096423;28;19912;-78
2021/11/24 02:44:22;;;;;;;;;;;23.90;40.20;;;;;;5079170;28;19919;-80
2021/11/24 02:46:52;;;;;;;;;;;23.90;40.20;;;;;;5096207;28;19997;-79
2021/11/24 02:49:18;;;;;;;;;;;23.90;40.20;;;;;;5096560;28;19912;-78
2021/11/24 02:51:44;;;;;;;;;;;23.90;40.20;;;;;;5078670;28;19924;-76
2021/11/24 02:54:09;;;;;;;;;;;23.80;40.20;;;;;;5095593;28;19919;-81
2021/11/24 02:56:35;;;;;;;;;;;23.90;40.20;;;;;;5095553;28;19908;-80
2021/11/24 02:59:05;;;;;;;;;;;23.80;40.20;;;;;;5095636;28;20336;-80
2021/11/24 03:01:31;;;;;;;;;;;23.80;40.20;;;;;;5095319;28;20003;-82
2021/11/24 03:03:56;;;;;;;;;;;23.80;40.20;;;;;;5078487;28;20319;-77
2021/11/24 03:06:22;;;;;;;;;;;23.90;40.30;;;;;;5096295;28;19935;-80
2021/11/24 03:08:47;;;;;;;;;;;23.80;40.20;;;;;;5096283;28;20317;-77
2021/11/24 03:11:13;;;;;;;;;;;23.80;40.20;;;;;;5096174;28;19908;-78
2021/11/24 03:13:38;;;;;;;;;;;23.80;40.20;;;;;;5095236;28;19943;-83
2021/11/24 03:16:06;;;;;;;;;;;23.80;40.30;;;;;;5095181;28;19953;-76
2021/11/24 03:18:31;;;;;;;;;;;23.80;40.30;;;;;;5094902;28;19942;-76
2021/11/24 03:20:57;;;;;;;;;;;23.80;40.30;;;;;;5078102;28;19916;-84
2021/11/24 03:23:22;;;;;;;;;;;23.80;40.30;;;;;;5095100;28;19919;-80
2021/11/24 03:25:48;;;;;;;;;;;23.80;40.30;;;;;;5096189;28;19919;-79
2021/11/24 03:28:16;;;;;;;;;;;23.80;40.30;;;;;;5095732;28;19912;-76
2021/11/24 03:30:41;;;;;;;;;;;23.80;40.30;;;;;;5094831;28;19912;-76
2021/11/24 03:33:07;;;;;;;;;;;23.80;40.40;;;;;;5094890;28;20312;-78
2021/11/24 03:35:33;;;;;;;;;;;23.70;40.30;;;;;;5077736;28;20371;-82
2021/11/24 03:37:58;;;;;;;;;;;23.70;40.30;;;;;;5095534;28;20447;-77
2021/11/24 03:40:26;;;;;;;;;;;23.70;40.30;;;;;;5094957;28;20344;-76
2021/11/24 03:42:54;;;;;;;;;;;23.80;40.30;;;;;;5094737;28;20347;-77
2021/11/24 03:45:25;;;;;;;;;;;23.80;40.30;;;;;;5094725;28;19935;-79
2021/11/24 03:47:51;;;;;;;;;;;23.80;40.30;;;;;;5094753;28;19908;-77
2021/11/24 03:50:16;;;;;;;;;;;23.70;40.30;;;;;;5094836;28;19923;-76
2021/11/24 03:52:42;;;;;;;;;;;23.70;40.30;;;;;;5094652;28;19908;-76
2021/11/24 03:55:08;;;;;;;;;;;23.70;40.30;;;;;;5094627;28;19919;-78
2021/11/24 03:57:33;;;;;;;;;;;23.70;40.30;;;;;;5094728;28;19912;-78
2021/11/24 03:59:59;;;;;;;;;;;23.70;40.30;;;;;;5094561;28;19919;-78
2021/11/24 04:02:24;;;;;;;;;;;23.70;40.30;;;;;;5095287;28;20005;-75
2021/11/24 04:04:50;;;;;;;;;;;23.70;40.40;;;;;;5094443;28;19908;-78
2021/11/24 04:07:16;;;;;;;;;;;23.70;40.40;;;;;;5094349;28;19908;-77
2021/11/24 04:09:43;;;;;;;;;;;23.70;40.40;;;;;;5095400;28;19912;-78
2021/11/24 04:12:11;;;;;;;;;;;23.70;40.40;;;;;;5095142;28;20336;-80
2021/11/24 04:14:36;;;;;;;;;;;23.70;40.30;;;;;;5095285;28;19908;-77
2021/11/24 04:17:02;;;;;;;;;;;23.70;40.30;;;;;;5095302;28;19919;-77
2021/11/24 04:19:30;;;;;;;;;;;23.70;40.40;;;;;;5077715;28;19919;-77
2021/11/24 04:21:58;;;;;;;;;;;23.70;40.40;;;;;;5094959;28;20036;-79
2021/11/24 04:24:25;;;;;;;;;;;23.70;40.40;;;;;;5077168;28;20354;-77
2021/11/24 04:26:51;;;;;;;;;;;23.70;40.40;;;;;;5094282;28;19909;-76
2021/11/24 04:29:19;;;;;;;;;;;23.70;40.40;;;;;;5094863;28;20003;-78
2021/11/24 04:31:47;;;;;;;;;;;23.70;40.40;;;;;;5128245;28;20113;-75
2021/11/24 04:34:12;;;;;;;;;;;23.60;40.40;;;;;;5094273;28;20337;-78
2021/11/24 04:36:38;;;;;;;;;;;23.70;40.40;;;;;;5076944;28;19920;-78
2021/11/24 04:39:06;;;;;;;;;;;23.60;40.40;;;;;;5094176;28;19916;-81
2021/11/24 04:41:31;;;;;;;;;;;23.70;40.40;;;;;;5094104;28;20002;-79
2021/11/24 04:43:57;;;;;;;;;;;23.70;40.40;;;;;;5094090;28;20003;-81
2021/11/24 04:46:22;;;;;;;;;;;23.60;40.40;;;;;;5093967;28;19969;-79
2021/11/24 04:48:50;;;;;;;;;;;23.60;40.40;;;;;;5077207;28;19951;-76
2021/11/24 04:51:18;;;;;;;;;;;23.60;40.40;;;;;;5094763;28;19910;-80
2021/11/24 04:53:46;;;;;;;;;;;23.60;40.40;;;;;;5094911;28;20101;-77
2021/11/24 04:56:12;;;;;;;;;;;23.60;40.40;;;;;;5094467;28;19908;-80
2021/11/24 04:58:48;;;;;;;;;;;23.60;40.40;;;;;;5077225;28;19918;-77
2021/11/24 05:01:16;;;;;;;;;;;23.60;40.40;;;;;;5094159;28;19935;-79
2021/11/24 05:03:41;;;;;;;;;;;23.60;40.40;;;;;;5094857;28;20007;-77
2021/11/24 05:06:07;;;;;;;;;;;23.60;40.40;;;;;;5093778;28;19962;-79
2021/11/24 05:08:35;;;;;;;;;;;23.60;40.40;;;;;;5094752;28;19908;-78
2021/11/24 05:11:03;;;;;;;;;;;23.60;40.40;;;;;;5097339;28;20303;-77
2021/11/24 05:13:29;;;;;;;;;;;23.60;40.40;;;;;;5080746;28;20221;-84
2021/11/24 05:16:01;;;;;;;;;;;23.60;40.40;;;;;;5097936;28;20344;-80
2021/11/24 05:18:35;;;;;;;;;;;23.60;40.40;;;;;;5081069;28;20332;-78
2021/11/24 05:21:08;;;;;;;;;;;23.60;40.40;;;;;;5098532;28;19908;-79
2021/11/24 05:23:38;;;;;;;;;;;23.60;40.50;;;;;;5098519;28;20290;-78
2021/11/24 05:26:04;;;;;;;;;;;23.60;40.40;;;;;;5097313;28;19919;-79
2021/11/24 05:28:32;;;;;;;;;;;23.60;40.40;;;;;;5097238;28;20245;-79
2021/11/24 05:30:58;;;;;;;;;;;23.60;40.40;;;;;;5080501;28;19993;-82
2021/11/24 05:33:26;;;;;;;;;;;23.60;40.50;;;;;;5097824;28;20000;-80
2021/11/24 05:35:51;;;;;;;;;;;23.60;40.50;;;;;;5096870;28;20326;-77
2021/11/24 05:38:17;;;;;;;;;;;23.60;40.50;;;;;;5080219;28;19908;-76
2021/11/24 05:40:45;;;;;;;;;;;23.60;40.50;;;;;;5097954;28;20337;-79
2021/11/24 05:43:19;;;;;;;;;;;23.60;40.50;;;;;;5097091;28;19908;-77
2021/11/24 05:46:09;;;;;;;;;;;23.60;40.50;;;;;;5096971;28;20390;-79
2021/11/24 05:48:33;;;;;;;;;;;23.60;40.50;;;;;;5096824;28;20011;-78
2021/11/24 05:50:58;;;;;;;;;;;23.60;40.50;;;;;;5080616;28;20218;-78
2021/11/24 05:53:24;;;;;;;;;;;23.60;40.50;;;;;;5080109;28;20018;-77
2021/11/24 05:55:50;;;;;;;;;;;23.50;40.50;;;;;;5097281;28;19908;-77
2021/11/24 05:58:18;;;;;;;;;;;23.50;40.50;;;;;;5098505;28;19919;-76
2021/11/24 06:00:46;;;;;;;;;;;23.50;40.50;;;;;;5099075;28;19918;-79
2021/11/24 06:03:11;;;;;;;;;;;23.60;40.60;;;;;;5080718;28;19908;-77
2021/11/24 06:05:39;;;;;;;;;;;23.60;40.50;;;;;;5097263;28;19954;-77
2021/11/24 06:08:07;;;;;;;;;;;23.50;40.50;;;;;;5096129;28;19919;-77
2021/11/24 06:10:33;;;;;;;;;;;23.50;40.50;;;;;;5097089;28;19912;-76
2021/11/24 06:13:01;;;;;;;;;;;23.50;40.50;;;;;;5097188;28;19915;-78
2021/11/24 06:15:28;;;;;;;;;;;23.50;40.50;;;;;;5097298;28;19947;-78
2021/11/24 06:17:59;;;;;;;;;;;23.50;40.50;;;;;;5096541;28;19973;-76
2021/11/24 06:20:24;;;;;;;;;;;23.50;40.50;;;;;;5095959;28;19951;-76
2021/11/24 06:22:50;;;;;;;;;;;23.50;40.50;;;;;;5079629;28;19919;-78
2021/11/24 06:25:16;;;;;;;;;;;23.50;40.50;;;;;;5096718;28;20385;-78
2021/11/24 06:27:42;;;;;;;;;;;23.50;40.50;;;;;;5097170;28;20253;-79
2021/11/24 06:30:08;;;;;;;;;;;23.50;40.50;;;;;;5079287;28;20282;-77
2021/11/24 06:32:33;;;;;;;;;;;23.50;40.50;;;;;;5079265;28;19908;-76
2021/11/24 06:35:01;;;;;;;;;;;23.50;40.50;;;;;;5095949;28;19908;-78
2021/11/24 06:37:27;;;;;;;;;;;23.50;40.60;;;;;;5095718;28;20252;-77
2021/11/24 06:39:52;;;;;;;;;;;23.50;40.50;;;;;;5096504;28;19922;-78
2021/11/24 06:42:18;;;;;;;;;;;23.50;40.20;;;;;;5095873;28;20447;-79
2021/11/24 06:44:43;;;;;;;;;;;23.60;40.00;;;;;;5096696;28;19912;-78
2021/11/24 06:47:09;;;;;;;;;;;23.60;39.80;;;;;;5095557;28;19947;-77
2021/11/24 06:49:37;;;;;;;;;;;23.70;39.70;;;;;;5095699;28;20244;-77
2021/11/24 06:52:02;;;;;;;;;;;23.70;39.60;;;;;;5095599;28;19909;-82
2021/11/24 06:54:29;;;;;;;;;;;23.70;39.50;;;;;;5078852;28;20379;-80
2021/11/24 06:56:56;;;;;;;;;;;23.60;33.30;;;;;;5096577;28;19954;-81
2021/11/24 06:59:24;;;;;;;;;;;23.00;29.70;;;;;;5078918;28;19918;-79
2021/11/24 07:01:50;;;;;;;;;;;22.40;33.10;;;;;;5096269;28;19908;-79
2021/11/24 07:04:15;;;;;;;;;;;22.40;35.70;;;;;;5078529;28;19977;-78
2021/11/24 07:06:46;;;;;;;;;;;22.40;35.90;;;;;;5078651;28;19908;-79
2021/11/24 07:09:13;;;;;;;;;;;22.40;36.00;;;;;;5078905;28;19912;-78
2021/11/24 07:11:39;;;;;;;;;;;22.50;36.10;;;;;;5095372;28;19931;-78
2021/11/24 07:14:04;;;;;;;;;;;22.60;36.50;;;;;;5078613;28;20332;-78
2021/11/24 07:16:30;;;;;;;;;;;22.70;36.10;;;;;;5095081;28;20329;-79
2021/11/24 07:18:55;;;;;;;;;;;22.80;36.20;;;;;;5095214;28;19909;-78
2021/11/24 07:21:23;;;;;;;;;;;23.00;36.20;;;;;;5095036;28;19919;-79
2021/11/24 07:23:49;;;;;;;;;;;23.00;36.40;;;;;;5094805;28;19908;-81
2021/11/24 07:26:16;;;;;;;;;;;23.10;36.80;;;;;;5094486;28;20313;-79
2021/11/24 07:28:41;;;;;;;;;;;23.20;37.10;;;;;;5094164;28;19915;-80
2021/11/24 07:31:11;;;;;;;;;;;23.30;37.40;;;;;;5094905;28;19908;-77
2021/11/24 07:33:37;;;;;;;;;;;23.30;37.50;;;;;;5077370;28;19999;-81
2021/11/24 07:36:02;;;;;;;;;;;23.40;38.00;;;;;;5097515;28;19985;-82
2021/11/24 07:38:28;;;;;;;;;;;23.50;38.00;;;;;;5095529;28;19944;-81
2021/11/24 07:40:55;;;;;;;;;;;23.60;38.60;;;;;;5078182;28;19912;-82
2021/11/24 07:43:23;;;;;;;;;;;23.60;38.80;;;;;;5094844;28;19907;-85
2021/11/24 07:45:50;;;;;;;;;;;23.70;38.60;;;;;;5094737;28;19914;-84
2021/11/24 07:48:16;;;;;;;;;;;23.80;38.90;;;;;;5094635;28;19931;-82
2021/11/24 07:50:44;;;;;;;;;;;23.80;38.30;;;;;;5094223;28;20245;-81
2021/11/24 07:53:12;;;;;;;;;;;23.90;38.60;;;;;;5077646;28;19908;-80
2021/11/24 07:55:37;;;;;;;;;;;23.90;39.00;;;;;;5078286;28;20012;-81
2021/11/24 07:58:06;;;;;;;;;;;24.00;38.80;;;;;;5077564;28;19912;-82
2021/11/24 08:00:34;;;;;;;;;;;24.00;38.50;;;;;;5077647;28;20356;-83
2021/11/24 08:02:59;;;;;;;;;;;24.10;38.20;;;;;;5077234;28;19909;-80
2021/11/24 08:05:27;;;;;;;;;;;24.10;40.00;;;;;;5077030;28;20268;-80
2021/11/24 08:07:53;;;;;;;;;;;24.10;44.70;;;;;;5094203;28;19931;-81
2021/11/24 08:10:20;;;;;;;;;;;24.20;46.80;;;;;;5077390;28;20348;-83
2021/11/24 08:12:53;;;;;;;;;;;24.20;47.10;;;;;;5094818;28;19908;-81
2021/11/24 08:15:18;;;;;;;;;;;24.30;48.10;;;;;;5078186;28;19908;-81
2021/11/24 08:17:46;;;;;;;;;;;24.30;47.90;;;;;;5078453;28;20327;-79
2021/11/24 08:20:14;;;;;;;;;;;24.40;47.90;;;;;;5096058;28;19935;-82
2021/11/24 08:22:39;;;;;;;;;;;24.40;48.50;;;;;;5094357;28;19908;-81
2021/11/24 08:25:06;;;;;;;;;;;24.40;47.80;;;;;;5077127;28;20525;-83
2021/11/24 08:27:32;;;;;;;;;;;24.40;47.70;;;;;;5094251;28;19958;-83
2021/11/24 08:29:58;;;;;;;;;;;24.50;47.50;;;;;;5094988;28;20338;-80
2021/11/24 08:32:26;;;;;;;;;;;24.50;47.50;;;;;;5094921;28;19912;-84
2021/11/24 08:34:54;;;;;;;;;;;24.60;47.50;;;;;;5077229;28;19908;-81
2021/11/24 08:37:22;;;;;;;;;;;24.60;47.20;;;;;;5094279;28;19920;-83
2021/11/24 08:39:48;;;;;;;;;;;24.60;47.20;;;;;;5094704;28;20014;-79
2021/11/24 08:42:17;;;;;;;;;;;24.70;47.20;;;;;;5078058;28;19919;-80
2021/11/24 08:44:44;;;;;;;;;;;24.60;47.00;;;;;;5080997;28;19916;-82
2021/11/24 08:47:09;;;;;;;;;;;24.70;46.90;;;;;;5098392;28;20348;-79
2021/11/24 08:49:37;;;;;;;;;;;24.70;46.70;;;;;;5098893;28;19955;-82
2021/11/24 08:52:05;;;;;;;;;;;24.70;46.50;;;;;;5098858;28;19920;-78
2021/11/24 08:54:33;;;;;;;;;;;24.70;46.40;;;;;;5098014;28;19920;-81
2021/11/24 08:57:04;;;;;;;;;;;24.80;46.40;;;;;;5081251;28;19919;-81
2021/11/24 08:59:30;;;;;;;;;;;24.80;46.80;;;;;;5098132;28;20249;-78
2021/11/24 09:01:57;;;;;;;;;;;24.80;46.20;;;;;;5080992;28;19954;-82
2021/11/24 09:04:23;;;;;;;;;;;24.80;46.20;;;;;;5097612;28;19944;-80
2021/11/24 09:06:51;;;;;;;;;;;24.80;46.10;;;;;;5081164;28;20245;-79
2021/11/24 09:09:17;;;;;;;;;;;24.80;46.00;;;;;;5080453;28;19913;-78
2021/11/24 09:11:42;;;;;;;;;;;24.90;45.90;;;;;;5097751;28;19962;-79
2021/11/24 09:14:07;;;;;;;;;;;24.90;45.80;;;;;;5097611;28;19908;-81
2021/11/24 09:16:33;;;;;;;;;;;24.90;45.70;;;;;;5080498;28;20285;-81
2021/11/24 09:19:00;;;;;;;;;;;25.00;45.60;;;;;;5080364;28;20294;-82
2021/11/24 09:21:25;;;;;;;;;;;25.00;45.50;;;;;;5080260;28;19920;-82
2021/11/24 09:23:56;;;;;;;;;;;25.00;45.50;;;;;;5097129;28;19908;-78
2021/11/24 09:28:50;;;;;;;;;;;25.00;45.30;;;;;;5096793;28;19908;-82
2021/11/24 09:31:17;;;;;;;;;;;25.00;45.30;;;;;;5080098;28;20337;-83
2021/11/24 09:33:45;;;;;;;;;;;25.00;45.20;;;;;;5080084;28;19915;-84
2021/11/24 09:36:12;;;;;;;;;;;25.10;45.10;;;;;;5096662;28;19908;-82
2021/11/24 09:38:38;;;;;;;;;;;25.10;45.10;;;;;;5080598;28;19914;-83
2021/11/24 09:41:05;;;;;;;;;;;25.10;45.00;;;;;;5079978;28;20276;-78
2021/11/24 09:43:33;;;;;;;;;;;25.10;44.90;;;;;;5096726;28;19912;-83
2021/11/24 09:45:58;;;;;;;;;;;25.10;44.90;;;;;;5096679;28;20333;-81
2021/11/24 09:48:26;;;;;;;;;;;25.10;44.80;;;;;;5096934;28;19922;-82
2021/11/24 09:50:54;;;;;;;;;;;25.10;44.80;;;;;;5079460;28;20234;-80
2021/11/24 09:53:20;;;;;;;;;;;25.10;44.70;;;;;;5079921;28;20285;-81
2021/11/24 09:55:45;;;;;;;;;;;25.10;44.80;;;;;;5095334;28;19908;-80
2021/11/24 09:58:15;;;;;;;;;;;25.10;44.60;;;;;;5079289;28;19908;-83
2021/11/24 10:00:41;;;;;;;;;;;25.10;44.60;;;;;;5096373;28;19941;-82
2021/11/24 10:03:06;;;;;;;;;;;25.10;44.60;;;;;;5079328;28;19908;-78
2021/11/24 10:05:32;;;;;;;;;;;25.20;44.60;;;;;;5097253;28;19919;-78
2021/11/24 10:07:57;;;;;;;;;;;25.20;44.60;;;;;;5095996;28;19908;-81
2021/11/24 10:10:25;;;;;;;;;;;25.20;44.60;;;;;;5079053;28;19912;-79
2021/11/24 10:12:51;;;;;;;;;;;25.20;44.50;;;;;;5096374;28;20364;-79
2021/11/24 10:15:32;;;;;;;;;;;25.20;44.40;;;;;;5097542;28;19908;-78
2021/11/24 10:18:11;;;;;;;;;;;25.20;44.40;;;;;;5096156;28;20006;-81
2021/11/24 10:20:43;;;;;;;;;;;25.30;44.30;;;;;;5079096;28;19912;-84
2021/11/24 10:23:26;;;;;;;;;;;25.20;44.20;;;;;;5095902;28;20264;-79
2021/11/24 10:25:52;;;;;;;;;;;25.20;44.20;;;;;;5096806;28;19922;-78
2021/11/24 10:28:30;;;;;;;;;;;25.30;44.30;;;;;;5079052;28;19908;-81
2021/11/24 10:30:56;;;;;;;;;;;25.30;44.20;;;;;;5079631;28;19912;-84
2021/11/24 10:33:26;;;;;;;;;;;25.30;44.10;;;;;;5078808;28;19908;-82
2021/11/24 10:36:12;;;;;;;;;;;25.30;44.10;;;;;;5095749;28;20267;-80
2021/11/24 10:38:47;;;;;;;;;;;25.30;44.10;;;;;;5079040;28;19931;-84
2021/11/24 10:41:24;;;;;;;;;;;25.30;44.10;;;;;;5078810;28;19959;-82
2021/11/24 10:43:49;;;;;;;;;;;25.30;43.90;;;;;;5078676;28;19908;-84
2021/11/24 10:46:17;;;;;;;;;;;25.30;43.60;;;;;;5079163;28;20319;-86
2021/11/24 10:48:45;;;;;;;;;;;25.30;43.40;;;;;;5096018;28;19908;-82
2021/11/24 10:51:26;;;;;;;;;;;25.30;43.40;;;;;;5096666;28;19963;-80
2021/11/24 10:54:05;;;;;;;;;;;25.30;43.50;;;;;;5079012;28;19915;-83
2021/11/24 10:56:31;;;;;;;;;;;25.30;43.50;;;;;;5078868;28;20404;-81
2021/11/24 10:59:16;;;;;;;;;;;25.30;43.50;;;;;;5095886;28;19940;-79
2021/11/24 11:01:41;;;;;;;;;;;25.30;43.60;;;;;;5078584;28;20003;-85
2021/11/24 11:04:13;;;;;;;;;;;25.30;43.60;;;;;;5078694;28;20308;-82
2021/11/24 11:06:40;;;;;;;;;;;25.30;43.60;;;;;;5095470;28;19908;-82
2021/11/24 11:09:06;;;;;;;;;;;25.30;43.50;;;;;;5078615;28;19923;-79
2021/11/24 11:11:32;;;;;;;;;;;25.40;43.50;;;;;;5078597;28;19912;-84
2021/11/24 11:14:17;;;;;;;;;;;25.40;43.50;;;;;;5097161;28;19955;-82
2021/11/24 11:16:43;;;;;;;;;;;25.40;43.40;;;;;;5095341;28;19970;-84
2021/11/24 11:19:11;;;;;;;;;;;25.40;43.40;;;;;;5095531;28;19919;-84
2021/11/24 11:21:39;;;;;;;;;;;25.40;43.20;;;;;;5095040;28;19965;-79
2021/11/24 11:24:07;;;;;;;;;;;25.30;43.20;;;;;;5078410;28;19912;-82
2021/11/24 11:26:35;;;;;;;;;;;25.40;43.20;;;;;;5095266;28;19977;-79
2021/11/24 11:29:01;;;;;;;;;;;25.40;43.10;;;;;;5095149;28;19935;-80
2021/11/24 11:31:29;;;;;;;;;;;25.40;42.90;;;;;;5095180;28;20356;-81
2021/11/24 11:33:59;;;;;;;;;;;25.40;42.90;;;;;;5078217;28;20027;-82
2021/11/24 11:36:25;;;;;;;;;;;25.40;42.90;;;;;;5095807;28;19932;-80
2021/11/24 11:38:53;;;;;;;;;;;25.40;43.00;;;;;;5095277;28;19918;-82
2021/11/24 11:41:25;;;;;;;;;;;25.40;43.00;;;;;;5078127;28;19951;-82
2021/11/24 11:43:53;;;;;;;;;;;25.40;43.00;;;;;;5077787;28;19909;-81
2021/11/24 11:46:19;;;;;;;;;;;25.40;43.00;;;;;;5077628;28;19908;-84
2021/11/24 11:48:45;;;;;;;;;;;25.40;43.00;;;;;;5077584;28;19908;-81
2021/11/24 11:51:11;;;;;;;;;;;25.40;43.10;;;;;;5077693;28;20654;-83
2021/11/24 11:53:43;;;;;;;;;;;25.40;43.00;;;;;;5094609;28;19908;-81
2021/11/24 11:56:29;;;;;;;;;;;25.40;43.00;;;;;;5079866;28;19999;-85
2021/11/24 11:59:04;;;;;;;;;;;25.40;42.90;;;;;;5093769;28;19931;-81
2021/11/24 12:01:31;;;;;;;;;;;25.40;43.00;;;;;;5094912;28;19908;-81
2021/11/24 12:04:00;;;;;;;;;;;25.40;43.00;;;;;;5094543;28;19916;-83
2021/11/24 12:06:30;;;;;;;;;;;25.40;42.90;;;;;;5077742;28;19969;-85
2021/11/24 12:09:08;;;;;;;;;;;25.40;43.00;;;;;;5077327;28;19908;-82
2021/11/24 12:11:52;;;;;;;;;;;25.50;43.00;;;;;;5095440;28;19938;-81
2021/11/24 12:14:36;;;;;;;;;;;25.40;43.00;;;;;;5094315;28;19969;-81
2021/11/24 12:17:23;;;;;;;;;;;25.50;43.10;;;;;;5095561;28;19919;-80
2021/11/24 12:19:48;;;;;;;;;;;25.50;43.10;;;;;;5098133;28;19958;-83
2021/11/24 12:22:16;;;;;;;;;;;25.40;43.00;;;;;;5082356;28;19919;-83
2021/11/24 12:24:46;;;;;;;;;;;25.50;43.10;;;;;;5098715;28;19912;-84
2021/11/24 12:27:11;;;;;;;;;;;25.50;43.10;;;;;;5098951;28;20222;-83
2021/11/24 12:29:55;;;;;;;;;;;25.50;43.00;;;;;;5081746;28;19922;-82
2021/11/24 12:32:25;;;;;;;;;;;25.50;42.90;;;;;;5081257;28;19908;-83
2021/11/24 12:34:51;;;;;;;;;;;25.50;42.90;;;;;;5082196;28;19908;-82
2021/11/24 12:37:20;;;;;;;;;;;25.50;42.90;;;;;;5081255;28;19943;-82
2021/11/24 12:39:46;;;;;;;;;;;25.50;42.90;;;;;;5098441;28;20356;-81
2021/11/24 12:42:13;;;;;;;;;;;25.50;42.90;;;;;;5098653;28;19915;-81
2021/11/24 12:44:51;;;;;;;;;;;25.50;42.90;;;;;;5098065;28;19909;-79
2021/11/24 12:47:26;;;;;;;;;;;25.50;42.80;;;;;;5078227;28;19912;-81
2021/11/24 12:50:01;;;;;;;;;;;25.50;42.90;;;;;;5095184;28;19912;-82
2021/11/24 12:52:27;;;;;;;;;;;25.50;43.00;;;;;;5112062;28;19947;-83
2021/11/24 12:54:52;;;;;;;;;;;25.50;42.90;;;;;;5094848;28;19908;-86
2021/11/24 12:57:18;;;;;;;;;;;25.60;42.90;;;;;;5111458;28;20016;-84
2021/11/24 12:59:44;;;;;;;;;;;25.60;42.90;;;;;;5111936;28;20377;-80
2021/11/24 13:02:11;;;;;;;;;;;25.60;42.90;;;;;;5077565;28;19947;-84
2021/11/24 13:04:46;;;;;;;;;;;25.60;42.80;;;;;;5111092;28;19908;-79
2021/11/24 13:07:19;;;;;;;;;;;25.60;42.80;;;;;;5111423;28;19908;-79
2021/11/24 13:09:45;;;;;;;;;;;25.60;42.70;;;;;;5110340;28;20363;-86
2021/11/24 13:12:17;;;;;;;;;;;25.60;42.70;;;;;;5094261;28;19916;-84
2021/11/24 13:14:43;;;;;;;;;;;25.60;42.70;;;;;;5094204;28;19920;-80
2021/11/24 13:17:09;;;;;;;;;;;25.60;42.70;;;;;;5111797;28;19908;-85
2021/11/24 13:19:34;;;;;;;;;;;25.60;42.70;;;;;;5077540;28;19939;-83
2021/11/24 13:22:00;;;;;;;;;;;25.60;38.60;;;;;;5078271;28;20263;-81
2021/11/24 13:24:26;;;;;;;;;;;25.10;34.70;;;;;;5094612;28;20230;-81
2021/11/24 13:26:53;;;;;;;;;;;25.00;40.10;;;;;;5094287;28;20337;-84
2021/11/24 13:29:21;;;;;;;;;;;25.00;40.70;;;;;;5110633;28;20281;-79
2021/11/24 13:31:46;;;;;;;;;;;24.90;41.00;;;;;;5093384;28;19991;-82
2021/11/24 13:34:12;;;;;;;;;;;25.00;41.20;;;;;;5093942;28;19956;-82
2021/11/24 13:36:44;;;;;;;;;;;25.00;41.30;;;;;;5076947;28;19948;-83
2021/11/24 13:39:12;;;;;;;;;;;25.10;41.40;;;;;;5093678;28;19908;-80
2021/11/24 13:41:40;;;;;;;;;;;25.10;41.50;;;;;;5093674;28;19934;-82
2021/11/24 13:44:06;;;;;;;;;;;25.20;41.50;;;;;;5110762;28;20359;-84
2021/11/24 13:46:50;;;;;;;;;;;25.20;41.50;;;;;;5110550;28;19908;-79
2021/11/24 13:49:21;;;;;;;;;;;25.30;41.50;;;;;;5076601;28;19917;-81
2021/11/24 13:51:47;;;;;;;;;;;25.30;41.50;;;;;;5093426;28;19909;-82
2021/11/24 13:54:13;;;;;;;;;;;25.40;41.60;;;;;;5110392;28;20341;-80
2021/11/24 13:56:46;;;;;;;;;;;25.40;41.50;;;;;;5093886;28;19965;-83
2021/11/24 13:59:16;;;;;;;;;;;25.40;41.50;;;;;;5076269;28;20254;-79
2021/11/24 14:01:46;;;;;;;;;;;25.40;41.40;;;;;;5093227;28;20359;-80
2021/11/24 14:04:18;;;;;;;;;;;25.40;41.50;;;;;;5110733;28;20241;-80
2021/11/24 14:06:47;;;;;;;;;;;25.50;41.60;;;;;;5093737;28;20245;-79
2021/11/24 14:09:13;;;;;;;;;;;25.40;41.30;;;;;;5076959;28;19923;-82
2021/11/24 14:11:38;;;;;;;;;;;25.40;41.40;;;;;;5094320;28;20297;-80
2021/11/24 14:14:08;;;;;;;;;;;25.50;41.50;;;;;;5093493;28;19912;-80
2021/11/24 14:16:33;;;;;;;;;;;25.50;41.60;;;;;;5110335;28;19909;-80
2021/11/24 14:19:31;;;;;;;;;;;25.50;41.60;;;;;;5093130;28;19915;-79
2021/11/24 14:21:57;;;;;;;;;;;25.50;41.60;;;;;;5076124;28;19909;-78